createdAt,value
2022-08-08T00:00:55.313Z,81.95
2022-08-08T00:06:02.892Z,81.97
2022-08-08T00:11:17.687Z,82.37
2022-08-08T00:16:27.659Z,82.53
2022-08-08T00:21:43.829Z,82.78
2022-08-08T00:26:54.781Z,82.94
2022-08-08T00:32:28.293Z,83.23
2022-08-08T00:37:48.223Z,83.35
2022-08-08T00:43:40.642Z,83.35
2022-08-08T00:49:23.153Z,83.35
2022-08-08T00:55:08.917Z,83.92
2022-08-08T01:00:17.670Z,83.97
2022-08-08T01:06:16.242Z,84.00
2022-08-08T01:12:03.176Z,84.05
2022-08-08T01:17:53.923Z,84.03
2022-08-08T01:24:07.120Z,84.22
2022-08-08T01:29:59.709Z,84.34
2022-08-08T01:35:38.434Z,84.49
2022-08-08T01:41:01.510Z,84.60
2022-08-08T01:46:32.943Z,84.73
2022-08-08T01:52:41.132Z,84.74
2022-08-08T01:58:04.164Z,84.76
2022-08-08T02:03:57.325Z,84.88
2022-08-08T02:08:59.667Z,84.99
2022-08-08T02:14:21.007Z,85.06
2022-08-08T02:19:57.044Z,85.22
2022-08-08T02:25:07.196Z,85.10
2022-08-08T02:30:24.741Z,85.14
2022-08-08T02:36:12.785Z,85.37
2022-08-08T02:42:10.509Z,85.51
2022-08-08T02:47:55.178Z,85.70
2022-08-08T02:53:24.975Z,85.83
2022-08-08T02:59:05.930Z,85.79
2022-08-08T03:05:11.293Z,85.94
2022-08-08T03:10:44.313Z,86.04
2022-08-08T03:16:10.470Z,85.88
2022-08-08T03:21:15.662Z,86.24
2022-08-08T03:26:30.791Z,86.28
2022-08-08T03:32:06.239Z,86.29
2022-08-08T03:37:59.019Z,86.16
2022-08-08T03:42:45.624Z,86.58
2022-08-08T03:48:02.584Z,86.84
2022-08-08T03:53:11.765Z,87.10
2022-08-08T03:58:35.177Z,87.12
2022-08-08T04:03:58.342Z,87.49
2022-08-08T04:09:10.815Z,87.57
2022-08-08T04:14:35.675Z,87.74
2022-08-08T04:19:41.671Z,87.97
2022-08-08T04:24:50.271Z,87.91
2022-08-08T04:30:00.945Z,87.33
2022-08-08T04:35:23.192Z,86.95
2022-08-08T04:40:30.719Z,85.86
2022-08-08T04:45:37.244Z,84.28
2022-08-08T04:50:44.508Z,81.33
2022-08-08T04:55:55.949Z,75.81
2022-08-08T05:01:09.136Z,66.21
2022-08-08T05:06:25.817Z,58.05
2022-08-08T05:11:39.266Z,54.49
2022-08-08T05:16:51.021Z,51.59
2022-08-08T05:22:05.119Z,47.42
2022-08-08T05:27:13.240Z,45.99
2022-08-08T05:32:19.801Z,45.20
2022-08-08T05:37:52.120Z,43.37
2022-08-08T05:43:17.109Z,40.81
2022-08-08T05:48:52.221Z,37.84
2022-08-08T05:54:26.694Z,37.69
2022-08-08T05:59:59.303Z,37.64
2022-08-08T06:05:34.225Z,37.96
2022-08-08T06:10:38.454Z,35.65
2022-08-08T06:15:50.475Z,33.46
2022-08-08T06:21:03.696Z,31.00
2022-08-08T06:26:38.298Z,29.23
2022-08-08T06:32:09.507Z,27.77
2022-08-08T06:37:24.313Z,26.40
2022-08-08T06:42:52.172Z,25.32
2022-08-08T06:48:04.186Z,25.01
2022-08-08T06:53:20.309Z,24.33
2022-08-08T06:58:33.660Z,23.59
2022-08-08T07:04:40.211Z,22.96
2022-08-08T07:09:21.643Z,21.98
2022-08-08T07:14:36.705Z,20.99
2022-08-08T07:19:53.772Z,20.83
2022-08-08T07:25:07.287Z,20.75
2022-08-08T07:30:21.293Z,21.53
2022-08-08T07:35:35.570Z,21.70
2022-08-08T07:40:44.070Z,22.29
2022-08-08T07:46:23.189Z,22.75
2022-08-08T07:51:23.331Z,23.25
2022-08-08T07:56:59.804Z,22.86
2022-08-08T08:02:34.635Z,22.52
2022-08-08T08:07:38.658Z,21.45
2022-08-08T08:12:53.072Z,21.17
2022-08-08T08:18:03.845Z,20.29
2022-08-08T08:23:10.413Z,20.19
2022-08-08T08:28:23.658Z,19.89
2022-08-08T08:33:30.514Z,18.93
2022-08-08T08:38:49.473Z,19.63
2022-08-08T08:44:13.182Z,19.20
2022-08-08T08:49:20.135Z,18.36
2022-08-08T08:54:32.653Z,17.97
2022-08-08T09:00:01.629Z,18.08
2022-08-08T09:05:13.972Z,18.33
2022-08-08T09:10:39.654Z,20.40
2022-08-08T09:15:48.551Z,19.91
2022-08-08T09:21:59.247Z,20.74
2022-08-08T09:26:32.474Z,21.00
2022-08-08T09:31:56.653Z,19.90
2022-08-08T09:37:29.124Z,20.97
2022-08-08T09:42:44.013Z,19.66
2022-08-08T09:48:10.120Z,21.09
2022-08-08T09:53:31.732Z,22.53
2022-08-08T09:58:53.735Z,21.65
2022-08-08T10:04:08.945Z,21.68
2022-08-08T10:09:15.048Z,21.44
2022-08-08T10:14:38.363Z,22.04
2022-08-08T10:19:57.350Z,20.60
2022-08-08T10:25:15.747Z,21.10
2022-08-08T10:31:00.531Z,22.03
2022-08-08T10:36:20.824Z,21.58
2022-08-08T10:41:35.706Z,23.57
2022-08-08T10:46:54.901Z,24.82
2022-08-08T10:52:03.201Z,24.25
2022-08-08T10:57:09.462Z,23.52
2022-08-08T11:02:15.548Z,23.86
2022-08-08T11:08:30.318Z,24.29
2022-08-08T11:13:28.004Z,24.78
2022-08-08T11:18:30.491Z,25.58
2022-08-08T11:23:40.904Z,24.67
2022-08-08T11:28:47.345Z,23.79
2022-08-08T11:34:01.861Z,23.67
2022-08-08T11:39:24.654Z,24.42
2022-08-08T11:44:33.023Z,24.69
2022-08-08T11:49:40.536Z,22.26
2022-08-08T11:54:47.557Z,22.97
2022-08-08T12:00:02.757Z,24.00
2022-08-08T12:05:33.915Z,25.29
2022-08-08T12:10:50.870Z,26.81
2022-08-08T12:16:08.464Z,27.86
2022-08-08T12:21:25.626Z,29.08
2022-08-08T12:26:54.191Z,28.93
2022-08-08T12:32:09.552Z,30.05
2022-08-08T12:37:25.857Z,29.26
2022-08-08T12:42:48.190Z,29.20
2022-08-08T12:48:10.275Z,30.23
2022-08-08T12:53:37.622Z,29.31
2022-08-08T12:58:50.794Z,27.76
2022-08-08T13:03:57.040Z,26.81
2022-08-08T13:09:10.499Z,27.41
2022-08-08T13:14:16.800Z,27.47
2022-08-08T13:19:25.410Z,27.53
2022-08-08T13:24:49.064Z,28.64
2022-08-08T13:29:57.907Z,29.80
2022-08-08T13:35:06.178Z,30.67
2022-08-08T13:40:32.755Z,31.68
2022-08-08T13:45:39.176Z,31.73
2022-08-08T13:50:53.837Z,32.39
2022-08-08T13:56:11.088Z,33.34
2022-08-08T14:01:19.488Z,32.08
2022-08-08T14:06:34.071Z,31.24
2022-08-08T14:11:42.119Z,31.20
2022-08-08T14:16:51.963Z,31.31
2022-08-08T14:21:59.104Z,32.06
2022-08-08T14:27:15.500Z,31.97
2022-08-08T14:32:30.078Z,32.62
2022-08-08T14:37:43.209Z,33.37
2022-08-08T14:43:31.311Z,32.96
2022-08-08T14:48:52.500Z,32.74
2022-08-08T14:54:05.453Z,33.16
2022-08-08T14:59:22.569Z,33.19
2022-08-08T15:04:37.894Z,33.17
2022-08-08T15:09:43.741Z,33.58
2022-08-08T15:14:49.523Z,33.84
2022-08-08T15:19:55.218Z,34.08
2022-08-08T15:25:01.664Z,33.47
2022-08-08T15:30:16.286Z,33.70
2022-08-08T15:35:25.550Z,33.54
2022-08-08T15:40:39.135Z,32.47
2022-08-08T15:45:50.481Z,32.92
2022-08-08T15:51:03.033Z,33.16
2022-08-08T15:56:13.171Z,33.70
2022-08-08T16:01:20.989Z,33.92
2022-08-08T16:06:31.063Z,34.37
2022-08-08T16:13:11.361Z,34.50
2022-08-08T16:17:05.620Z,35.05
2022-08-08T16:22:12.136Z,35.03
2022-08-08T16:27:38.922Z,35.75
2022-08-08T16:32:48.396Z,36.31
2022-08-08T16:37:56.163Z,36.86
2022-08-08T16:43:01.961Z,37.90
2022-08-08T16:48:08.417Z,38.26
2022-08-08T16:55:23.202Z,38.52
2022-08-08T16:58:42.282Z,38.80
2022-08-08T17:04:00.909Z,39.17
2022-08-08T17:09:07.501Z,39.89
2022-08-08T17:14:27.254Z,40.47
2022-08-08T17:19:41.603Z,41.11
2022-08-08T17:24:53.791Z,41.63
2022-08-08T17:29:59.971Z,42.13
2022-08-08T17:35:55.333Z,42.63
2022-08-08T17:40:33.027Z,43.08
2022-08-08T17:45:39.111Z,43.87
2022-08-08T17:50:46.250Z,44.26
2022-08-08T17:56:05.410Z,45.21
2022-08-08T18:01:13.795Z,45.50
2022-08-08T18:06:36.050Z,46.24
2022-08-08T18:11:51.016Z,46.55
2022-08-08T18:16:58.572Z,46.95
2022-08-08T18:22:49.947Z,47.56
2022-08-08T18:27:34.566Z,48.88
2022-08-08T18:32:44.107Z,48.82
2022-08-08T18:37:50.158Z,48.42
2022-08-08T18:42:56.414Z,48.62
2022-08-08T18:48:02.307Z,48.99
2022-08-08T18:53:13.919Z,49.32
2022-08-08T18:58:22.226Z,49.38
2022-08-08T19:03:30.253Z,49.67
2022-08-08T19:08:56.415Z,49.73
2022-08-08T19:14:03.039Z,49.97
2022-08-08T19:19:13.494Z,50.13
2022-08-08T19:24:40.648Z,50.40
2022-08-08T19:29:46.274Z,50.43
2022-08-08T19:34:55.911Z,50.74
2022-08-08T19:40:01.749Z,51.12
2022-08-08T19:45:10.366Z,51.06
2022-08-08T19:50:20.192Z,51.01
2022-08-08T19:55:25.809Z,51.38
2022-08-08T20:00:34.493Z,51.34
2022-08-08T20:06:15.099Z,51.76
2022-08-08T20:11:09.971Z,51.86
2022-08-08T20:16:17.517Z,52.19
2022-08-08T20:21:25.383Z,52.26
2022-08-08T20:26:33.614Z,52.63
2022-08-08T20:32:08.015Z,53.00
2022-08-08T20:37:09.480Z,52.71
2022-08-08T20:42:18.235Z,52.81
2022-08-08T20:47:36.544Z,52.87
2022-08-08T20:52:48.156Z,53.05
2022-08-08T20:57:57.844Z,53.38
2022-08-08T21:03:04.291Z,53.54
2022-08-08T21:08:36.781Z,53.57
2022-08-08T21:13:40.678Z,53.75
2022-08-08T21:18:47.291Z,53.77
2022-08-08T21:24:02.171Z,54.51
2022-08-08T21:29:11.966Z,54.52
2022-08-08T21:34:29.971Z,54.84
2022-08-08T21:39:54.622Z,55.12
2022-08-08T21:45:44.317Z,55.35
2022-08-08T21:50:28.967Z,55.71
2022-08-08T21:56:25.923Z,57.03
2022-08-08T22:01:04.104Z,57.30
2022-08-08T22:06:11.970Z,57.83
2022-08-08T22:11:51.367Z,57.97
2022-08-08T22:16:43.926Z,57.67
2022-08-08T22:21:50.679Z,58.13
2022-08-08T22:27:02.724Z,58.41
2022-08-08T22:32:09.790Z,58.54
2022-08-08T22:37:48.694Z,58.73
2022-08-08T22:42:41.519Z,58.42
2022-08-08T22:47:49.388Z,58.55
2022-08-08T22:54:29.108Z,59.32
2022-08-08T22:58:28.354Z,59.52
2022-08-08T23:03:54.746Z,59.93
2022-08-08T23:09:01.126Z,59.89
2022-08-08T23:14:15.511Z,60.36
2022-08-08T23:19:22.137Z,60.56
2022-08-08T23:24:28.235Z,61.19
2022-08-08T23:29:43.411Z,62.04
2022-08-08T23:35:01.178Z,61.95
2022-08-08T23:40:14.601Z,62.86
2022-08-08T23:49:04.325Z,63.28
2022-08-08T23:50:47.994Z,62.39
2022-08-08T23:56:03.706Z,62.48
